Airfield :
LOGIN :

Register | Disclaimer

   EN    FR    IT 

 










Legend :    VFR   Marginal VFR   IFR   Intensive IFR   Very Intensive IFR
Visi :
Ceiling :
>= 8 km
>= 3000ft
5 to 8 km
1000 to 3000 ft
1500m to 5 km
500 to 1000 ft
800 to 1500m
200 to 500 ft
< 800m
< 200 ft
Symbols :   Thunderstorms  Fog  Heavy snow  Heavy precipitations  Wind > 20 kt
SIGMETs :     Misc.  Thunderstorms  Icing  Turbulence  Mountain Waves  Volcanic Ashes







- Airport Elevation : 1234 ft
- IATA code : LUX


ELLX - Luxembourg Findel

CURRENT METAR :
  • 201050Z 14003KT 060V230 2200 BR FEW002 05/05 Q1024 TEMPO 5000

EXPIRED METARs :
  • 201020Z 16004KT 110V210 0300 R24/0500V1600U FG SCT000 SCT002 04/04 Q1024 TEMPO 0800 FG
  • 200950Z VRB02KT 0100 R24/0700V1500U FG BKN000 03/03 Q1024 TEMPO 0800 FG
  • 200920Z 19003KT 130V240 0200 R24/0350N FG SCT000 03/03 Q1024 TEMPO 0800 FG
  • 200850Z VRB02KT 0500 R24/0350V0750U FG SCT000 SCT019 03/03 Q1024 TEMPO 1500 BR
  • 200820Z VRB01KT 0150 R24/0275N FG SCT000 SCT020 02/02 Q1023 TEMPO 0350 FG
  • 200750Z VRB02KT 0100 R24/0225N FG BKN000 01/01 Q1023 TEMPO 0350 FG

TAF TAF ELLX
Valid from the 20 at 06:00 until the 21 at 12:00 UTC


200500Z 2006/2112 23005KT 2000 BR NSC
TEMPO 2006/2011 0100 FG VV001
PROB40
TEMPO 2006/2009 FZFG
BECMG 2010/2012 9999 NSW
BECMG 2023/2102 0100 FG VV001
BECMG 2109/2111 6000 BKN010
ATIS : +352 4798 27300
Met : +352 4798 27010 / 27050
No reported NOTAMs for that airfield.



MET'MAP, your aeronautical weather chart ! - Copyright ORBIFLY December 2007 - Disclaimer

ORBIFLY MET'MAP TEAM :

Programming & Development : Alexandra Zaïnal
Concept & Development : Baudouin d'Aumeries
Co-Development & Prog : Marc-Olivier Méhu
Technical & hardware support : Manuel Goepfert

Contact : metmap@orbifly.com




SOURCES & CREDITS :

   NOAA